Time;durP1;ratioP1;P1;durP2;ratioP2;P2;SDS_P1;SDS_P2;PMS_P1;PMS_P2;Temp;Humidity;BMP_temperature;BMP_pressure;BME280_temperature;BME280_humidity;BME280_pressure;Samples;Min_cycle;Max_cycle;Signal;HPM_P1;HPM_P2
2022/04/29 00:00:17;;;;;;;7.40;3.25;;;7.80;76.80;;;;;;5034242;28;20209;-63
2022/04/29 00:02:46;;;;;;;7.35;3.53;;;7.80;77.70;;;;;;5037187;28;20191;-63
2022/04/29 00:05:14;;;;;;;6.00;3.75;;;7.70;78.40;;;;;;5036656;28;20589;-62
2022/04/29 00:07:41;;;;;;;5.50;3.60;;;7.70;79.40;;;;;;5034512;28;20228;-62
2022/04/29 00:10:13;;;;;;;7.80;3.50;;;7.70;80.20;;;;;;5034605;28;20207;-63
2022/04/29 00:12:41;;;;;;;6.28;3.30;;;7.70;81.00;;;;;;5033210;28;20183;-63
2022/04/29 00:15:09;;;;;;;10.50;3.60;;;7.60;81.80;;;;;;5032881;28;20229;-63
2022/04/29 00:17:38;;;;;;;9.88;4.00;;;7.60;82.60;;;;;;5032947;28;20706;-63
2022/04/29 00:20:07;;;;;;;12.27;4.55;;;7.50;83.40;;;;;;5032605;28;20204;-62
2022/04/29 00:22:34;;;;;;;13.68;4.75;;;7.50;84.20;;;;;;5033017;28;20230;-62
2022/04/29 00:25:01;;;;;;;7.20;4.28;;;7.50;85.20;;;;;;5034392;28;20208;-62
2022/04/29 00:27:28;;;;;;;6.72;4.20;;;7.50;85.90;;;;;;5036835;28;20207;-61
2022/04/29 00:29:55;;;;;;;7.38;4.32;;;7.40;86.40;;;;;;5036979;28;20633;-63
2022/04/29 00:32:23;;;;;;;8.55;3.30;;;7.40;86.90;;;;;;5037218;28;20206;-63
2022/04/29 00:34:51;;;;;;;7.22;4.07;;;7.30;87.40;;;;;;5037021;28;20718;-63
2022/04/29 00:37:18;;;;;;;6.10;3.72;;;7.30;88.00;;;;;;5037200;28;20290;-61
2022/04/29 00:39:45;;;;;;;8.02;4.15;;;7.30;88.40;;;;;;5036768;28;20620;-63
2022/04/29 00:42:13;;;;;;;6.93;3.50;;;7.20;88.60;;;;;;5036803;28;20210;-62
2022/04/29 00:44:40;;;;;;;6.15;3.70;;;7.20;89.00;;;;;;5036718;28;20205;-62
2022/04/29 00:47:09;;;;;;;6.57;3.85;;;7.20;89.40;;;;;;5036509;28;20262;-62
2022/04/29 00:49:36;;;;;;;9.43;5.00;;;7.20;89.80;;;;;;5036759;28;20211;-62
2022/04/29 00:52:07;;;;;;;9.77;3.90;;;7.10;90.00;;;;;;5036881;28;20559;-62
2022/04/29 00:54:38;;;;;;;7.20;3.67;;;7.10;90.40;;;;;;5036374;28;20584;-62
2022/04/29 00:57:09;;;;;;;10.50;5.18;;;7.00;90.70;;;;;;5037190;28;20227;-62
2022/04/29 00:59:43;;;;;;;9.18;4.38;;;7.00;91.20;;;;;;5036339;28;20206;-62
2022/04/29 01:02:10;;;;;;;11.18;5.05;;;7.00;91.60;;;;;;5036432;28;20191;-62
2022/04/29 01:04:43;;;;;;;8.38;4.65;;;7.00;92.10;;;;;;5036537;28;20206;-62
2022/04/29 01:07:11;;;;;;;9.73;5.28;;;7.00;92.50;;;;;;5036432;28;20222;-62
2022/04/29 01:09:38;;;;;;;13.77;5.30;;;6.90;93.10;;;;;;5036293;28;20211;-62
2022/04/29 01:12:07;;;;;;;10.70;4.80;;;6.90;93.50;;;;;;5035920;28;20202;-62
2022/04/29 01:14:34;;;;;;;11.68;5.10;;;6.90;93.90;;;;;;5035996;28;20218;-62
2022/04/29 01:17:01;;;;;;;8.02;4.93;;;6.90;94.40;;;;;;5035688;28;20737;-62
2022/04/29 01:19:30;;;;;;;17.77;5.68;;;6.90;94.90;;;;;;5035942;28;20207;-62
2022/04/29 01:22:01;;;;;;;11.13;4.55;;;6.90;95.30;;;;;;5035818;28;20218;-62
2022/04/29 01:24:28;;;;;;;8.88;4.97;;;6.80;95.60;;;;;;5035775;28;20179;-62
2022/04/29 01:26:55;;;;;;;9.80;4.70;;;6.80;96.00;;;;;;5035869;28;20228;-61
2022/04/29 01:29:23;;;;;;;9.57;5.68;;;6.80;96.40;;;;;;5035841;28;20202;-62
2022/04/29 01:31:52;;;;;;;9.38;5.20;;;6.80;96.90;;;;;;5035518;28;20713;-62
2022/04/29 01:34:19;;;;;;;11.98;5.85;;;6.80;97.30;;;;;;5035690;28;20233;-62
2022/04/29 01:36:46;;;;;;;9.93;4.50;;;6.80;97.90;;;;;;5034630;28;20222;-62
2022/04/29 01:39:14;;;;;;;13.13;6.25;;;6.80;98.10;;;;;;5035655;28;20623;-62
2022/04/29 01:41:41;;;;;;;17.95;6.18;;;6.80;98.50;;;;;;5035758;28;20206;-62
2022/04/29 01:44:08;;;;;;;9.85;5.47;;;6.80;98.50;;;;;;5035646;28;20633;-63
2022/04/29 01:46:35;;;;;;;8.73;5.13;;;6.80;98.70;;;;;;5035345;28;20239;-62
2022/04/29 01:49:03;;;;;;;11.27;7.65;;;6.80;99.00;;;;;;5035698;28;20213;-63
2022/04/29 01:51:30;;;;;;;9.23;5.95;;;6.80;99.20;;;;;;5035668;28;20199;-62
2022/04/29 01:53:57;;;;;;;13.88;5.57;;;6.80;99.40;;;;;;5035541;28;20202;-63
2022/04/29 01:56:33;;;;;;;9.60;5.47;;;6.70;99.60;;;;;;5036080;28;20220;-62
2022/04/29 01:59:00;;;;;;;14.00;5.90;;;6.80;99.80;;;;;;5036130;28;20226;-62
2022/04/29 02:01:28;;;;;;;9.93;5.85;;;6.70;99.80;;;;;;5036936;28;20246;-63
2022/04/29 02:03:55;;;;;;;9.88;5.50;;;6.70;99.90;;;;;;5037346;28;20686;-63
2022/04/29 02:06:23;;;;;;;20.13;5.78;;;6.70;99.90;;;;;;5035141;28;20250;-61
2022/04/29 02:08:50;;;;;;;7.45;6.07;;;6.70;99.90;;;;;;5035018;28;20204;-63
2022/04/29 02:11:17;;;;;;;11.52;5.07;;;6.70;99.90;;;;;;5034965;28;20215;-62
2022/04/29 02:13:47;;;;;;;12.93;5.70;;;6.70;99.90;;;;;;5034785;28;20287;-63
2022/04/29 02:16:14;;;;;;;8.63;5.72;;;6.60;99.90;;;;;;5034971;28;20603;-62
2022/04/29 02:18:42;;;;;;;8.23;5.70;;;6.70;99.90;;;;;;5034944;28;20225;-63
2022/04/29 02:21:09;;;;;;;14.90;6.53;;;6.60;99.90;;;;;;5035021;28;20632;-62
2022/04/29 02:23:36;;;;;;;10.23;6.00;;;6.60;99.90;;;;;;5034852;28;20559;-63
2022/04/29 02:26:03;;;;;;;19.17;7.55;;;6.60;99.90;;;;;;5034606;28;20222;-62
2022/04/29 02:28:31;;;;;;;9.98;6.38;;;6.60;99.90;;;;;;5035006;28;20337;-62
2022/04/29 02:31:00;;;;;;;16.55;7.10;;;6.60;99.90;;;;;;5034842;28;20202;-63
2022/04/29 02:33:28;;;;;;;14.35;5.95;;;6.60;99.90;;;;;;5035066;28;20281;-63
2022/04/29 02:35:56;;;;;;;11.25;6.15;;;6.60;99.90;;;;;;5034705;28;20230;-62
2022/04/29 02:38:23;;;;;;;7.82;5.70;;;6.60;99.90;;;;;;5034422;28;20202;-62
2022/04/29 02:40:51;;;;;;;12.35;6.78;;;6.60;99.90;;;;;;5034949;28;20206;-63
2022/04/29 02:43:19;;;;;;;10.90;6.28;;;6.60;99.90;;;;;;5036844;28;20585;-61
2022/04/29 02:45:47;;;;;;;10.75;7.00;;;6.50;99.90;;;;;;5039178;28;20230;-62
2022/04/29 02:48:18;;;;;;;15.00;7.47;;;6.50;99.90;;;;;;5035095;28;20245;-62
2022/04/29 02:50:45;;;;;;;13.60;6.82;;;6.50;99.90;;;;;;5034573;28;20619;-61
2022/04/29 02:53:12;;;;;;;12.57;7.18;;;6.50;99.90;;;;;;5035486;28;20234;-62
2022/04/29 02:55:39;;;;;;;13.30;7.40;;;6.50;99.90;;;;;;5034409;28;20231;-62
2022/04/29 02:58:06;;;;;;;14.48;7.20;;;6.40;99.90;;;;;;5034495;28;20693;-62
2022/04/29 03:00:34;;;;;;;13.80;6.57;;;6.40;99.90;;;;;;5034528;28;20210;-62
2022/04/29 03:03:01;;;;;;;14.63;7.88;;;6.40;99.90;;;;;;5034273;28;20203;-63
2022/04/29 03:05:29;;;;;;;20.45;7.55;;;6.40;99.90;;;;;;5034261;28;20445;-62
2022/04/29 03:07:56;;;;;;;11.35;7.07;;;6.40;99.90;;;;;;5034799;28;20698;-62
2022/04/29 03:10:23;;;;;;;20.23;7.80;;;6.40;99.90;;;;;;5034036;28;20209;-63
2022/04/29 03:12:50;;;;;;;16.27;7.28;;;6.30;99.90;;;;;;5034511;28;20233;-62
2022/04/29 03:15:18;;;;;;;13.30;7.38;;;6.30;99.90;;;;;;5034175;28;20226;-63
2022/04/29 03:20:36;;;;;;;12.52;7.30;;;6.30;99.90;;;;;;5033810;28;20189;-62
2022/04/29 03:23:03;;;;;;;21.10;8.45;;;6.30;99.90;;;;;;5033521;28;20206;-63
2022/04/29 03:25:30;;;;;;;13.10;7.82;;;6.20;99.90;;;;;;5033514;28;20214;-63
2022/04/29 03:27:57;;;;;;;13.07;7.72;;;6.30;99.90;;;;;;5033298;28;20697;-62
2022/04/29 03:30:25;;;;;;;14.18;7.80;;;6.30;99.90;;;;;;5033451;28;20228;-61
2022/04/29 03:32:53;;;;;;;19.63;7.75;;;6.20;99.90;;;;;;5033522;28;20207;-62
2022/04/29 03:35:21;;;;;;;14.85;7.47;;;6.20;99.90;;;;;;5033239;28;20311;-62
2022/04/29 03:37:51;;;;;;;10.27;7.85;;;6.20;99.90;;;;;;5033421;28;20683;-62
2022/04/29 03:40:20;;;;;;;12.30;8.02;;;6.10;99.90;;;;;;5034568;28;20569;-62
2022/04/29 03:42:48;;;;;;;18.08;8.05;;;6.10;99.90;;;;;;5034051;28;20206;-62
2022/04/29 03:45:15;;;;;;;14.15;7.63;;;6.10;99.90;;;;;;5033718;28;20250;-63
2022/04/29 03:47:42;;;;;;;20.27;8.75;;;6.10;99.90;;;;;;5033111;28;20251;-62
2022/04/29 03:50:10;;;;;;;19.88;8.70;;;6.10;99.90;;;;;;5033397;28;20218;-63
2022/04/29 03:52:47;;;;;;;11.90;7.60;;;6.10;99.90;;;;;;5033229;28;20729;-62
2022/04/29 03:55:16;;;;;;;14.80;8.80;;;6.00;99.90;;;;;;5033234;28;20234;-63
2022/04/29 03:57:43;;;;;;;15.20;8.95;;;6.00;99.90;;;;;;5035336;28;20198;-63
2022/04/29 04:00:13;;;;;;;17.40;8.98;;;6.00;99.90;;;;;;5033710;28;20209;-62
2022/04/29 04:02:40;;;;;;;12.73;8.32;;;6.00;99.90;;;;;;5034894;28;20206;-62
2022/04/29 04:05:08;;;;;;;15.65;9.45;;;6.00;99.90;;;;;;5034195;28;20198;-62
2022/04/29 04:09:41;;;;;;;25.25;8.73;;;5.90;99.90;;;;;;5091137;27;20607;-63
2022/04/29 04:12:09;;;;;;;17.67;10.65;;;6.00;99.90;;;;;;5092101;28;20220;-62
2022/04/29 04:14:36;;;;;;;20.23;9.15;;;6.00;99.90;;;;;;5091081;28;20247;-63
2022/04/29 04:17:04;;;;;;;16.13;9.27;;;6.00;99.90;;;;;;5091663;28;20221;-61
2022/04/29 04:19:31;;;;;;;21.38;9.70;;;6.00;99.90;;;;;;5090327;28;20301;-64
2022/04/29 04:21:58;;;;;;;17.15;8.98;;;6.00;99.90;;;;;;5091115;28;20204;-63
2022/04/29 04:24:25;;;;;;;21.65;9.82;;;6.00;99.90;;;;;;5091123;28;20207;-63
2022/04/29 04:26:54;;;;;;;14.35;9.95;;;6.00;99.90;;;;;;5091086;28;20596;-62
2022/04/29 04:29:21;;;;;;;17.85;8.70;;;6.00;99.90;;;;;;5091593;28;20214;-62
2022/04/29 04:31:48;;;;;;;17.70;8.93;;;6.10;99.90;;;;;;5091200;28;20216;-62
2022/04/29 04:37:00;;;;;;;17.23;9.68;;;6.10;99.90;;;;;;5090518;28;20223;-63
2022/04/29 04:39:27;;;;;;;15.18;9.70;;;6.20;99.90;;;;;;5091834;28;20211;-62
2022/04/29 04:41:55;;;;;;;21.42;11.00;;;6.20;99.90;;;;;;5092087;28;20207;-62
2022/04/29 04:44:22;;;;;;;20.10;10.13;;;6.20;99.90;;;;;;5091232;28;20202;-62
2022/04/29 04:46:49;;;;;;;19.10;10.27;;;6.30;99.90;;;;;;5092891;28;20224;-62
2022/04/29 04:49:16;;;;;;;19.35;10.48;;;6.30;99.90;;;;;;5092717;28;20280;-62
2022/04/29 04:51:43;;;;;;;17.40;10.02;;;6.40;99.90;;;;;;5091577;28;20207;-63
2022/04/29 04:54:10;;;;;;;18.00;10.60;;;6.40;99.90;;;;;;5090971;28;20214;-63
2022/04/29 04:56:38;;;;;;;14.73;9.35;;;6.50;99.90;;;;;;5092148;28;20224;-61
2022/04/29 04:59:07;;;;;;;16.00;9.68;;;6.50;99.90;;;;;;5091972;28;20686;-62
2022/04/29 05:01:34;;;;;;;19.63;10.25;;;6.50;99.90;;;;;;5092714;28;20203;-62
2022/04/29 05:04:01;;;;;;;16.25;10.32;;;6.50;99.90;;;;;;5092020;28;20207;-63
2022/04/29 05:06:28;;;;;;;19.85;10.02;;;6.60;99.90;;;;;;5091412;28;20219;-62
2022/04/29 05:08:55;;;;;;;20.13;8.95;;;6.60;99.90;;;;;;5092004;28;20218;-62
2022/04/29 05:11:22;;;;;;;19.80;9.68;;;6.70;99.90;;;;;;5093407;28;20210;-62
2022/04/29 05:13:49;;;;;;;15.90;9.73;;;6.80;99.90;;;;;;5093359;28;20661;-63
2022/04/29 05:16:17;;;;;;;15.68;8.90;;;6.90;99.90;;;;;;5090562;28;20234;-63
2022/04/29 05:18:44;;;;;;;19.42;9.60;;;6.90;99.90;;;;;;5091568;28;20199;-63
2022/04/29 05:21:11;;;;;;;18.95;9.93;;;6.90;99.90;;;;;;5076828;28;20203;-62
2022/04/29 05:23:39;;;;;;;16.75;9.25;;;6.90;99.90;;;;;;5078333;28;20229;-63
2022/04/29 05:26:06;;;;;;;16.67;10.10;;;6.90;99.90;;;;;;5077591;28;20225;-64
2022/04/29 05:28:33;;;;;;;22.27;9.70;;;6.90;99.90;;;;;;5079252;28;20230;-61
2022/04/29 05:31:00;;;;;;;20.35;10.70;;;6.90;99.90;;;;;;5078836;28;20529;-63
2022/04/29 05:33:30;;;;;;;17.90;9.07;;;7.00;99.90;;;;;;5077392;28;20201;-63
2022/04/29 05:35:57;;;;;;;17.15;10.27;;;7.10;99.90;;;;;;5079037;28;20727;-61
2022/04/29 05:38:24;;;;;;;22.48;9.95;;;7.20;99.90;;;;;;5078972;28;20200;-63
2022/04/29 05:43:35;;;;;;;25.25;12.18;;;7.40;99.90;;;;;;5078446;28;20206;-62
2022/04/29 05:46:02;;;;;;;21.83;10.35;;;7.60;99.90;;;;;;5077616;28;20228;-62
2022/04/29 05:48:31;;;;;;;20.73;11.40;;;7.70;99.90;;;;;;5078917;28;20217;-62
2022/04/29 05:50:59;;;;;;;24.27;10.07;;;7.90;99.90;;;;;;5078219;28;20212;-62
2022/04/29 05:53:26;;;;;;;15.77;10.20;;;8.00;99.90;;;;;;5078804;28;20211;-62
2022/04/29 05:55:53;;;;;;;19.33;9.95;;;8.10;99.90;;;;;;5078697;28;20237;-62
2022/04/29 05:58:20;;;;;;;15.02;10.73;;;8.20;99.90;;;;;;5078437;28;20618;-62
2022/04/29 06:00:47;;;;;;;21.88;11.05;;;8.20;99.90;;;;;;5081087;28;20231;-62
2022/04/29 06:03:14;;;;;;;22.20;11.30;;;8.30;99.90;;;;;;5083051;28;20208;-64
2022/04/29 06:05:43;;;;;;;16.75;10.38;;;8.40;99.90;;;;;;5084762;28;20220;-62
2022/04/29 06:08:10;;;;;;;16.35;10.70;;;8.30;99.90;;;;;;5081057;28;20217;-61
2022/04/29 06:10:37;;;;;;;18.80;10.55;;;8.30;99.90;;;;;;5082094;28;20205;-63
2022/04/29 06:13:05;;;;;;;20.30;10.38;;;8.30;99.90;;;;;;5079906;28;20205;-62
2022/04/29 06:15:32;;;;;;;15.20;11.25;;;8.30;99.90;;;;;;5077882;28;20796;-61
2022/04/29 06:18:00;;;;;;;23.08;12.50;;;8.30;99.90;;;;;;5079325;28;20653;-63
2022/04/29 06:20:27;;;;;;;17.48;11.05;;;8.30;99.90;;;;;;5079589;28;20205;-62
2022/04/29 06:22:55;;;;;;;15.55;10.13;;;8.30;99.90;;;;;;5078184;28;20256;-63
2022/04/29 06:25:22;;;;;;;19.27;10.60;;;8.40;99.90;;;;;;5077711;28;20228;-61
2022/04/29 06:27:49;;;;;;;19.63;10.85;;;8.50;99.90;;;;;;5077890;28;20212;-62
2022/04/29 06:30:17;;;;;;;26.70;11.55;;;8.50;99.90;;;;;;5077527;28;20220;-62
2022/04/29 06:32:44;;;;;;;21.25;11.50;;;8.60;99.90;;;;;;5075954;28;20211;-63
2022/04/29 06:35:12;;;;;;;19.38;11.05;;;8.80;99.90;;;;;;5077492;28;20201;-62
2022/04/29 06:37:39;;;;;;;19.55;9.27;;;9.00;99.90;;;;;;5088248;28;20212;-62
2022/04/29 06:40:08;;;;;;;17.88;11.38;;;9.20;99.90;;;;;;5086512;28;20661;-63
2022/04/29 06:42:45;;;;;;;17.92;11.00;;;9.20;99.30;;;;;;5084829;28;20228;-62
2022/04/29 06:45:12;;;;;;;26.45;11.10;;;9.20;99.10;;;;;;5084864;28;20268;-63
2022/04/29 06:47:39;;;;;;;17.35;10.40;;;9.30;98.90;;;;;;5082458;28;20620;-61
2022/04/29 06:50:07;;;;;;;19.70;11.20;;;9.30;98.90;;;;;;5080026;28;20236;-63
2022/04/29 06:52:35;;;;;;;17.25;10.55;;;9.50;98.50;;;;;;5076834;28;20665;-62
2022/04/29 06:55:02;;;;;;;17.33;10.15;;;9.60;98.20;;;;;;5074733;28;20201;-62
2022/04/29 06:57:31;;;;;;;16.57;10.47;;;9.90;97.60;;;;;;5074992;28;20235;-62
2022/04/29 06:59:58;;;;;;;18.63;11.33;;;10.10;96.30;;;;;;5077444;28;20567;-63
2022/04/29 07:02:26;;;;;;;19.30;10.77;;;10.40;95.40;;;;;;5077607;28;20461;-62
2022/04/29 07:04:53;;;;;;;17.50;9.33;;;10.50;94.40;;;;;;5078099;28;20985;-62
2022/04/29 07:07:20;;;;;;;23.10;10.57;;;10.70;93.50;;;;;;5078659;28;20478;-63
2022/04/29 07:09:47;;;;;;;16.90;10.10;;;10.70;92.80;;;;;;5080254;28;21002;-62
2022/04/29 07:12:14;;;;;;;16.87;10.40;;;10.70;92.40;;;;;;5079393;28;20453;-62
2022/04/29 07:14:43;;;;;;;14.73;10.50;;;10.70;92.50;;;;;;5078453;28;20447;-63
2022/04/29 07:17:10;;;;;;;19.93;10.03;;;10.70;92.50;;;;;;5076152;28;20995;-61
2022/04/29 07:19:38;;;;;;;14.60;9.50;;;10.70;92.00;;;;;;5077444;28;20440;-62
2022/04/29 07:22:05;;;;;;;16.93;9.77;;;10.60;91.70;;;;;;5078822;28;20508;-63
2022/04/29 07:24:32;;;;;;;20.27;10.03;;;10.50;91.80;;;;;;5077254;28;20450;-62
2022/04/29 07:27:00;;;;;;;20.70;9.47;;;10.50;91.90;;;;;;5076380;28;20462;-62
2022/04/29 07:29:28;;;;;;;22.40;10.10;;;10.60;92.00;;;;;;5074685;28;20574;-62
2022/04/29 07:31:56;;;;;;;20.67;10.63;;;10.60;91.20;;;;;;5075892;28;20435;-61
2022/04/29 07:41:44;;;;;;;17.93;9.67;;;10.70;91.00;;;;;;5075003;28;20443;-62
2022/04/29 07:42:40;;;;;;;18.27;10.93;;;11.00;89.40;;;;;;5073055;28;20439;-63
2022/04/29 07:45:08;;;;;;;16.13;9.77;;;11.10;89.40;;;;;;5072902;28;20456;-62
2022/04/29 07:47:36;;;;;;;23.57;10.40;;;11.20;88.50;;;;;;5073701;28;20814;-61
2022/04/29 07:50:05;;;;;;;18.50;9.80;;;11.30;87.60;;;;;;5073654;28;20916;-63
2022/04/29 07:52:33;;;;;;;16.50;10.53;;;11.40;86.80;;;;;;5073537;28;20923;-62
2022/04/29 07:55:01;;;;;;;14.97;9.70;;;11.60;85.50;;;;;;5073338;28;20809;-62
2022/04/29 07:57:28;;;;;;;14.40;10.50;;;11.70;84.20;;;;;;5073535;28;20553;-61
2022/04/29 07:59:55;;;;;;;19.87;9.67;;;11.80;82.90;;;;;;5073621;28;20949;-63
2022/04/29 08:02:22;;;;;;;16.57;10.63;;;11.90;81.80;;;;;;5073535;28;20449;-63
2022/04/29 08:04:51;;;;;;;16.60;10.30;;;11.90;81.40;;;;;;5073925;28;20449;-62
2022/04/29 08:07:18;;;;;;;13.50;9.93;;;11.90;80.80;;;;;;5073543;28;20824;-62
2022/04/29 08:09:45;;;;;;;16.37;10.80;;;12.10;80.50;;;;;;5073671;28;20997;-63
2022/04/29 08:12:13;;;;;;;15.60;9.83;;;12.30;79.20;;;;;;5088499;28;20439;-62
2022/04/29 08:14:41;;;;;;;15.63;10.23;;;12.60;77.40;;;;;;5092366;28;20477;-63
2022/04/29 08:17:08;;;;;;;20.70;10.37;;;12.70;75.50;;;;;;5084208;28;20467;-63
2022/04/29 08:19:35;;;;;;;18.30;10.10;;;12.90;74.50;;;;;;5073466;28;20447;-63
2022/04/29 08:22:04;;;;;;;17.57;10.37;;;12.90;73.90;;;;;;5073012;28;20788;-62
2022/04/29 08:24:31;;;;;;;16.80;11.23;;;13.00;72.50;;;;;;5073018;28;20538;-63
2022/04/29 08:26:58;;;;;;;14.07;10.40;;;13.10;71.80;;;;;;5073161;28;20482;-63
2022/04/29 08:29:26;;;;;;;17.80;11.10;;;13.20;70.80;;;;;;5072925;28;20496;-61
2022/04/29 08:31:53;;;;;;;13.37;9.60;;;13.30;69.50;;;;;;5074542;28;20442;-63
2022/04/29 08:34:20;;;;;;;14.87;10.43;;;13.40;68.80;;;;;;5073343;28;20458;-63
2022/04/29 08:36:47;;;;;;;14.43;9.20;;;13.50;67.80;;;;;;5073261;28;20471;-64
2022/04/29 08:39:15;;;;;;;15.60;9.80;;;13.60;67.30;;;;;;5073735;28;20482;-63
2022/04/29 08:41:44;;;;;;;11.00;8.93;;;13.80;66.60;;;;;;5073764;28;20455;-62
2022/04/29 08:44:11;;;;;;;15.43;9.77;;;14.00;65.30;;;;;;5073402;28;20789;-63
2022/04/29 08:46:40;;;;;;;17.73;9.80;;;14.10;64.40;;;;;;5073635;22;20492;-61
2022/04/29 08:49:08;;;;;;;14.10;8.80;;;14.20;63.60;;;;;;5036073;28;21030;-60
2022/04/29 08:51:35;;;;;;;11.40;8.17;;;14.40;62.80;;;;;;5035579;28;20455;-60
2022/04/29 08:54:04;;;;;;;11.77;8.47;;;14.50;61.70;;;;;;5036118;28;20946;-60
2022/04/29 08:59:19;;;;;;;11.90;8.00;;;14.70;60.20;;;;;;5039422;28;20406;-60
2022/04/29 09:01:46;;;;;;;12.23;8.40;;;14.90;59.40;;;;;;5038326;28;20934;-59
2022/04/29 09:04:13;;;;;;;10.87;8.00;;;15.10;58.40;;;;;;5038140;28;20816;-60
2022/04/29 09:06:48;;;;;;;13.50;8.50;;;15.30;57.70;;;;;;5038015;28;20484;-60
2022/04/29 09:09:19;;;;;;;16.70;8.47;;;15.40;57.00;;;;;;5037640;28;20909;-59
2022/04/29 09:11:48;;;;;;;11.90;8.57;;;15.50;56.70;;;;;;5039040;28;20447;-60
2022/04/29 09:14:23;;;;;;;10.63;7.73;;;15.70;56.00;;;;;;5038822;28;20444;-62
2022/04/29 09:16:50;;;;;;;13.07;8.17;;;15.80;55.00;;;;;;5037983;28;20468;-60
2022/04/29 09:19:31;;;;;;;13.27;8.70;;;15.90;54.40;;;;;;5037422;28;20524;-60
2022/04/29 09:22:07;;;;;;;16.40;8.53;;;16.00;54.00;;;;;;5038338;28;20484;-60
2022/04/29 09:24:34;;;;;;;12.57;8.70;;;16.10;53.60;;;;;;5038985;28;20479;-62
2022/04/29 09:27:04;;;;;;;12.70;8.73;;;16.20;53.20;;;;;;5038289;28;20776;-62
2022/04/29 09:29:41;;;;;;;12.87;8.20;;;16.30;52.80;;;;;;5037199;28;20878;-61
2022/04/29 09:32:08;;;;;;;12.03;9.03;;;16.40;52.20;;;;;;5037714;28;20433;-61
2022/04/29 09:34:46;;;;;;;14.83;8.03;;;16.50;51.80;;;;;;5037308;28;20448;-61
2022/04/29 09:37:17;;;;;;;12.53;8.80;;;16.70;51.50;;;;;;5037329;28;20474;-60
2022/04/29 09:39:53;;;;;;;11.30;8.80;;;17.00;50.80;;;;;;5037600;28;20457;-61
2022/04/29 09:42:22;;;;;;;12.50;8.27;;;17.20;50.20;;;;;;5036900;28;20454;-61
2022/04/29 09:44:49;;;;;;;10.90;8.20;;;17.40;49.90;;;;;;5036397;28;20462;-61
2022/04/29 09:47:19;;;;;;;16.00;9.00;;;17.60;49.30;;;;;;5036133;28;20487;-61
2022/04/29 09:49:53;;;;;;;14.43;9.07;;;17.60;48.70;;;;;;5036328;28;20486;-61
2022/04/29 09:52:21;;;;;;;10.83;8.17;;;17.60;48.50;;;;;;5035994;28;20436;-61
2022/04/29 09:54:48;;;;;;;14.67;9.10;;;17.70;48.20;;;;;;5037342;28;20450;-59
2022/04/29 09:57:17;;;;;;;12.83;9.00;;;17.60;47.80;;;;;;5037555;28;20465;-62
2022/04/29 09:59:48;;;;;;;10.33;7.57;;;17.60;47.90;;;;;;5037304;28;20948;-57
2022/04/29 10:02:17;;;;;;;11.07;8.33;;;17.80;47.90;;;;;;5038210;28;20425;-60
2022/04/29 10:04:46;;;;;;;15.23;8.50;;;17.90;47.60;;;;;;5037285;28;20460;-60
2022/04/29 10:07:15;;;;;;;16.97;7.93;;;18.20;47.10;;;;;;5037022;28;20465;-61
2022/04/29 10:09:45;;;;;;;11.27;8.00;;;18.30;46.80;;;;;;5037467;28;20480;-61
2022/04/29 10:12:14;;;;;;;11.40;7.93;;;18.60;46.20;;;;;;5037405;28;20442;-61
2022/04/29 10:14:42;;;;;;;12.13;7.27;;;18.70;45.80;;;;;;5036940;28;20483;-62
2022/04/29 10:22:49;;;;;;;12.10;7.63;;;18.90;44.70;;;;;;5036518;28;20414;-61
2022/04/29 10:25:18;;;;;;;11.37;7.83;;;19.00;44.60;;;;;;5036561;28;20433;-61
2022/04/29 10:27:46;;;;;;;12.13;7.57;;;19.20;44.40;;;;;;5036435;28;20476;-62
2022/04/29 10:30:15;;;;;;;12.10;8.10;;;19.30;44.00;;;;;;5036412;28;20481;-62
2022/04/29 10:33:05;;;;;;;10.70;6.67;;;19.40;43.70;;;;;;5036702;28;20445;-62
2022/04/29 10:35:50;;;;;;;11.50;6.57;;;19.50;43.40;;;;;;5035875;28;20796;-60
2022/04/29 10:38:18;;;;;;;13.47;8.00;;;19.60;43.10;;;;;;5036190;28;20483;-61
2022/04/29 10:40:48;;;;;;;12.83;8.30;;;19.60;43.00;;;;;;5036526;28;20981;-61
2022/04/29 10:43:18;;;;;;;14.53;8.27;;;19.70;42.90;;;;;;5037150;28;20445;-61
2022/04/29 10:46:16;;;;;;;7.83;7.00;;;19.70;42.70;;;;;;5035010;28;20457;-61
2022/04/29 10:48:45;;;;;;;8.13;7.00;;;19.80;42.60;;;;;;5034646;28;20448;-60
2022/04/29 10:51:15;;;;;;;7.90;6.90;;;19.80;42.30;;;;;;5036998;28;20476;-59
2022/04/29 10:53:44;;;;;;;13.60;7.83;;;19.70;42.20;;;;;;5038221;28;20906;-59
2022/04/29 10:56:37;;;;;;;8.10;6.50;;;19.40;42.50;;;;;;5035486;28;20465;-58
2022/04/29 10:59:15;;;;;;;12.57;7.53;;;19.40;42.90;;;;;;5033793;28;20902;-61
2022/04/29 11:01:48;;;;;;;12.73;7.63;;;19.40;42.80;;;;;;5034421;28;20471;-59
2022/04/29 11:04:45;;;;;;;8.73;6.87;;;19.40;42.70;;;;;;5034551;28;20432;-58
2022/04/29 11:07:34;;;;;;;10.43;8.10;;;19.20;42.60;;;;;;5035765;28;20523;-60
2022/04/29 11:10:02;;;;;;;11.77;8.03;;;19.10;42.70;;;;;;5035651;28;20525;-60
2022/04/29 11:12:32;;;;;;;12.03;7.00;;;19.10;42.80;;;;;;5033772;28;20552;-60
2022/04/29 11:15:08;;;;;;;11.60;8.03;;;19.30;42.70;;;;;;5033606;28;20932;-59
2022/04/29 11:17:36;;;;;;;11.73;7.63;;;19.60;42.40;;;;;;5033689;28;20460;-59
2022/04/29 11:20:19;;;;;;;11.00;7.43;;;19.60;42.00;;;;;;5034461;28;20473;-60
2022/04/29 11:25:53;;;;;;;10.80;7.30;;;19.60;41.80;;;;;;5034870;28;20548;-61
2022/04/29 11:28:21;;;;;;;13.93;7.70;;;19.80;41.70;;;;;;5034925;28;20801;-61
2022/04/29 11:30:49;;;;;;;13.30;7.07;;;20.00;41.60;;;;;;5035307;28;20485;-57
2022/04/29 11:33:21;;;;;;;15.50;8.90;;;19.90;41.50;;;;;;5035044;28;20945;-60
2022/04/29 11:35:57;;;;;;;13.17;8.23;;;20.00;41.50;;;;;;5034928;28;20432;-59
2022/04/29 11:38:25;;;;;;;10.97;8.67;;;20.30;41.20;;;;;;5034458;28;20433;-61
2022/04/29 11:40:53;;;;;;;10.87;8.10;;;20.40;40.80;;;;;;5034629;28;20507;-57
2022/04/29 11:43:23;;;;;;;9.87;8.87;;;20.50;40.60;;;;;;5035188;28;20444;-59
2022/04/29 11:46:00;;;;;;;12.77;8.20;;;20.70;40.30;;;;;;5034848;28;20457;-59
2022/04/29 11:48:27;;;;;;;11.83;9.23;;;21.00;39.90;;;;;;5034968;28;20498;-59
2022/04/29 11:50:58;;;;;;;11.10;7.90;;;21.50;39.40;;;;;;5034478;28;20481;-59
2022/04/29 11:53:25;;;;;;;10.67;7.63;;;22.00;38.60;;;;;;5034635;28;20475;-58
2022/04/29 11:55:53;;;;;;;13.63;8.70;;;22.20;37.90;;;;;;5034269;28;20452;-58
2022/04/29 11:58:20;;;;;;;13.67;7.87;;;22.40;37.70;;;;;;5035269;28;20441;-60
2022/04/29 12:00:50;;;;;;;9.83;7.83;;;22.70;37.20;;;;;;5035000;28;20445;-59
2022/04/29 12:03:20;;;;;;;14.27;8.17;;;22.90;36.70;;;;;;5034875;28;20435;-58
2022/04/29 12:05:47;;;;;;;12.90;8.00;;;23.30;37.00;;;;;;5034787;28;20955;-57
2022/04/29 12:08:16;;;;;;;10.33;8.27;;;23.50;35.80;;;;;;5034751;28;20448;-59
2022/04/29 12:10:45;;;;;;;14.60;8.53;;;23.50;35.20;;;;;;5034294;28;20481;-58
2022/04/29 12:13:12;;;;;;;12.60;8.47;;;23.20;34.80;;;;;;5033971;28;20480;-58
2022/04/29 12:15:41;;;;;;;9.30;8.23;;;23.00;35.30;;;;;;5034497;28;20449;-58
2022/04/29 12:18:11;;;;;;;13.70;8.30;;;22.90;35.20;;;;;;5034548;28;20486;-58
2022/04/29 12:20:39;;;;;;;11.50;8.27;;;22.80;35.40;;;;;;5034496;28;20464;-59
2022/04/29 12:23:10;;;;;;;13.50;8.10;;;23.10;35.40;;;;;;5034265;28;20464;-59
2022/04/29 12:25:42;;;;;;;14.13;8.30;;;23.20;34.80;;;;;;5033527;28;20457;-59
2022/04/29 12:28:11;;;;;;;15.03;10.87;;;22.80;34.60;;;;;;5033079;28;20430;-59
2022/04/29 12:36:11;;;;;;;9.50;7.17;;;22.30;35.10;;;;;;5037690;28;20510;-60
2022/04/29 12:38:40;;;;;;;9.33;6.80;;;22.10;34.80;;;;;;5037762;28;20510;-60
2022/04/29 12:41:23;;;;;;;10.67;8.20;;;22.00;35.10;;;;;;5037925;28;20440;-59
2022/04/29 12:43:51;;;;;;;11.27;8.13;;;21.70;35.60;;;;;;5037685;28;20452;-59
2022/04/29 12:46:20;;;;;;;12.37;8.43;;;21.60;36.10;;;;;;5037198;28;20546;-59
2022/04/29 12:48:49;;;;;;;14.17;8.77;;;21.50;36.30;;;;;;5037112;28;20448;-58
2022/04/29 12:51:24;;;;;;;11.10;7.73;;;21.30;36.40;;;;;;5037056;28;20487;-59
2022/04/29 12:53:51;;;;;;;10.23;7.73;;;21.00;36.70;;;;;;5037456;28;20440;-59
2022/04/29 12:56:31;;;;;;;12.47;7.30;;;20.80;37.20;;;;;;5037195;28;20543;-59
2022/04/29 12:58:59;;;;;;;10.53;7.37;;;20.60;37.50;;;;;;5037175;28;20441;-59
2022/04/29 13:01:27;;;;;;;11.03;6.80;;;20.60;37.60;;;;;;5037226;28;20451;-59
2022/04/29 13:03:55;;;;;;;14.57;7.80;;;20.50;38.10;;;;;;5037230;28;20774;-59
2022/04/29 13:06:23;;;;;;;11.43;7.43;;;20.40;38.80;;;;;;5037527;28;20479;-59
2022/04/29 13:08:55;;;;;;;9.70;7.40;;;20.10;39.50;;;;;;5036810;28;20467;-60
2022/04/29 13:11:23;;;;;;;9.27;8.27;;;19.90;40.10;;;;;;5036852;28;20487;-59
2022/04/29 13:13:53;;;;;;;11.90;6.57;;;19.80;40.60;;;;;;5036857;28;20823;-60
2022/04/29 13:16:22;;;;;;;11.63;6.73;;;19.80;41.00;;;;;;5036745;28;20972;-59
2022/04/29 13:18:49;;;;;;;11.60;5.80;;;19.80;41.40;;;;;;5036972;28;20452;-60
2022/04/29 13:21:17;;;;;;;11.67;6.23;;;19.70;41.70;;;;;;5036739;28;20518;-60